Time;durP1;ratioP1;P1;durP2;ratioP2;P2;SDS_P1;SDS_P2;PMS_P1;PMS_P2;Temp;Humidity;BMP_temperature;BMP_pressure;BME280_temperature;BME280_humidity;BME280_pressure;Samples;Min_cycle;Max_cycle;Signal;HPM_P1;HPM_P2
2023/04/24 00:02:10;;;;;;;;;;;14.40;65.50;;;;;;4995431;28;84871;-39
2023/04/24 00:04:40;;;;;;;;;;;14.40;65.60;;;;;;4992845;28;82370;-39
2023/04/24 00:07:06;;;;;;;;;;;14.40;65.50;;;;;;4994621;28;83997;-39
2023/04/24 00:09:32;;;;;;;;;;;14.40;65.60;;;;;;4994239;28;84321;-39
2023/04/24 00:11:57;;;;;;;;;;;14.40;65.60;;;;;;4993045;28;82007;-39
2023/04/24 00:14:23;;;;;;;;;;;14.30;65.60;;;;;;4996105;28;83824;-39
2023/04/24 00:16:48;;;;;;;;;;;14.40;65.70;;;;;;4995031;28;83646;-39
2023/04/24 00:19:14;;;;;;;;;;;14.30;65.60;;;;;;4995645;28;83321;-39
2023/04/24 00:21:40;;;;;;;;;;;14.30;65.60;;;;;;4992788;28;85572;-39
2023/04/24 00:24:06;;;;;;;;;;;14.30;65.60;;;;;;4993991;28;82719;-39
2023/04/24 00:26:31;;;;;;;;;;;14.30;65.50;;;;;;4995022;28;84092;-39
2023/04/24 00:28:57;;;;;;;;;;;14.30;65.50;;;;;;4991130;28;86093;-39
2023/04/24 00:31:22;;;;;;;;;;;14.30;65.70;;;;;;4995958;28;82083;-39
2023/04/24 00:33:48;;;;;;;;;;;14.30;65.60;;;;;;4992993;28;84316;-39
2023/04/24 00:36:14;;;;;;;;;;;14.30;65.60;;;;;;4994072;28;84663;-39
2023/04/24 00:38:39;;;;;;;;;;;14.30;65.60;;;;;;4997215;28;81126;-39
2023/04/24 00:41:05;;;;;;;;;;;14.30;65.70;;;;;;4999018;28;84348;-39
2023/04/24 00:43:30;;;;;;;;;;;14.20;65.60;;;;;;4996204;28;82151;-39
2023/04/24 00:45:56;;;;;;;;;;;14.30;65.70;;;;;;4998408;28;83043;-39
2023/04/24 00:48:22;;;;;;;;;;;14.20;65.70;;;;;;4995433;28;84806;-39
2023/04/24 00:50:48;;;;;;;;;;;14.20;65.70;;;;;;4998014;28;81981;-39
2023/04/24 00:53:13;;;;;;;;;;;14.20;65.80;;;;;;4996635;28;84095;-39
2023/04/24 00:55:39;;;;;;;;;;;14.20;65.70;;;;;;4996510;28;84563;-39
2023/04/24 00:58:05;;;;;;;;;;;14.20;65.70;;;;;;5000750;28;81989;-39
2023/04/24 01:00:30;;;;;;;;;;;14.20;65.70;;;;;;4995367;28;84459;-39
2023/04/24 01:02:57;;;;;;;;;;;14.10;65.60;;;;;;4999308;28;81435;-38
2023/04/24 01:05:23;;;;;;;;;;;14.10;65.70;;;;;;4995673;28;83053;-39
2023/04/24 01:07:48;;;;;;;;;;;14.10;65.60;;;;;;4996907;28;84653;-38
2023/04/24 01:10:14;;;;;;;;;;;14.10;65.60;;;;;;4996264;28;82935;-38
2023/04/24 01:12:40;;;;;;;;;;;14.10;65.70;;;;;;4995381;28;84930;-38
2023/04/24 01:15:06;;;;;;;;;;;14.10;65.80;;;;;;4997584;28;83541;-39
2023/04/24 01:17:32;;;;;;;;;;;14.10;65.70;;;;;;4994456;28;81985;-39
2023/04/24 01:19:59;;;;;;;;;;;14.10;65.70;;;;;;4999711;28;83734;-39
2023/04/24 01:22:25;;;;;;;;;;;14.10;65.80;;;;;;4996155;28;82116;-39
2023/04/24 01:24:51;;;;;;;;;;;14.10;65.80;;;;;;4995742;28;83908;-39
2023/04/24 01:27:17;;;;;;;;;;;14.10;65.70;;;;;;4997423;28;83753;-38
2023/04/24 01:29:42;;;;;;;;;;;14.10;65.70;;;;;;4994477;28;82114;-39
2023/04/24 01:32:08;;;;;;;;;;;14.10;65.80;;;;;;4996073;28;84679;-39
2023/04/24 01:34:34;;;;;;;;;;;14.10;65.80;;;;;;4994189;28;85250;-39
2023/04/24 01:37:00;;;;;;;;;;;14.00;65.80;;;;;;4996453;28;81989;-39
2023/04/24 01:39:28;;;;;;;;;;;14.00;65.90;;;;;;4996352;28;83873;-39
2023/04/24 01:41:54;;;;;;;;;;;14.00;65.80;;;;;;4997284;28;83386;-39
2023/04/24 01:44:20;;;;;;;;;;;14.00;65.80;;;;;;4997694;28;84137;-39
2023/04/24 01:46:45;;;;;;;;;;;14.00;65.80;;;;;;4994592;28;84299;-39
2023/04/24 01:49:11;;;;;;;;;;;14.00;65.90;;;;;;4996788;28;82060;-39
2023/04/24 01:51:37;;;;;;;;;;;14.00;65.90;;;;;;4996260;28;82333;-39
2023/04/24 01:54:02;;;;;;;;;;;14.00;65.90;;;;;;4995287;28;83146;-39
2023/04/24 01:56:33;;;;;;;;;;;14.00;65.90;;;;;;4997440;28;81936;-39
2023/04/24 01:58:59;;;;;;;;;;;14.00;66.00;;;;;;4993997;28;84066;-39
2023/04/24 02:01:25;;;;;;;;;;;13.90;65.90;;;;;;4996556;28;83559;-39
2023/04/24 02:03:50;;;;;;;;;;;13.90;65.90;;;;;;4998331;28;82448;-38
2023/04/24 02:06:16;;;;;;;;;;;13.90;66.00;;;;;;4995390;28;82870;-39
2023/04/24 02:08:41;;;;;;;;;;;13.90;65.90;;;;;;4996703;28;82484;-38
2023/04/24 02:11:10;;;;;;;;;;;13.90;66.50;;;;;;4994274;28;84128;-38
2023/04/24 02:13:36;;;;;;;;;;;13.90;65.90;;;;;;4994101;28;84509;-39
2023/04/24 02:16:01;;;;;;;;;;;13.90;65.90;;;;;;4996351;28;81442;-38
2023/04/24 02:18:27;;;;;;;;;;;13.90;65.90;;;;;;4995558;28;83226;-39
2023/04/24 02:20:53;;;;;;;;;;;13.90;65.90;;;;;;4994823;28;84469;-39
2023/04/24 02:23:19;;;;;;;;;;;13.80;65.90;;;;;;4995745;28;83390;-39
2023/04/24 02:25:44;;;;;;;;;;;13.80;65.90;;;;;;4996348;28;84820;-39
2023/04/24 02:28:09;;;;;;;;;;;13.80;66.00;;;;;;4996981;28;82125;-39
2023/04/24 02:30:35;;;;;;;;;;;13.90;66.00;;;;;;4994738;28;83830;-38
2023/04/24 02:33:00;;;;;;;;;;;13.80;66.10;;;;;;4996001;28;82449;-39
2023/04/24 02:35:26;;;;;;;;;;;13.80;66.00;;;;;;4995669;28;82054;-39
2023/04/24 02:37:51;;;;;;;;;;;13.80;66.00;;;;;;4993792;28;84196;-39
2023/04/24 02:40:17;;;;;;;;;;;13.80;66.00;;;;;;4997003;28;84394;-39
2023/04/24 02:42:42;;;;;;;;;;;13.80;66.00;;;;;;4993439;28;82442;-38
2023/04/24 02:45:08;;;;;;;;;;;13.80;65.90;;;;;;4998619;28;84081;-39
2023/04/24 02:47:33;;;;;;;;;;;13.80;65.90;;;;;;4993803;28;83152;-38
2023/04/24 02:49:59;;;;;;;;;;;13.80;66.00;;;;;;4995297;28;83374;-38
2023/04/24 02:52:24;;;;;;;;;;;13.80;66.00;;;;;;4995213;28;84292;-38
2023/04/24 02:54:50;;;;;;;;;;;13.80;66.10;;;;;;4993700;28;82123;-39
2023/04/24 02:57:15;;;;;;;;;;;13.70;65.90;;;;;;4996620;28;82460;-38
2023/04/24 02:59:41;;;;;;;;;;;13.80;66.00;;;;;;4993098;28;83965;-38
2023/04/24 03:02:06;;;;;;;;;;;13.70;66.10;;;;;;4995936;28;82707;-38
2023/04/24 03:04:32;;;;;;;;;;;13.70;66.10;;;;;;4995262;28;82354;-38
2023/04/24 03:06:58;;;;;;;;;;;13.70;66.10;;;;;;4996934;28;84391;-39
2023/04/24 03:09:24;;;;;;;;;;;13.70;66.10;;;;;;4995525;28;83780;-39
2023/04/24 03:11:50;;;;;;;;;;;13.70;66.00;;;;;;4992431;28;85402;-38
2023/04/24 03:14:15;;;;;;;;;;;13.70;66.10;;;;;;4995915;28;82365;-38
2023/04/24 03:16:41;;;;;;;;;;;13.70;66.10;;;;;;4993813;28;83661;-38
2023/04/24 03:19:06;;;;;;;;;;;13.70;66.20;;;;;;4994893;28;84446;-39
2023/04/24 03:21:32;;;;;;;;;;;13.70;66.20;;;;;;4995189;28;82424;-39
2023/04/24 03:23:58;;;;;;;;;;;13.60;66.10;;;;;;4993940;28;83843;-39
2023/04/24 03:26:23;;;;;;;;;;;13.60;66.10;;;;;;4995546;28;84544;-38
2023/04/24 03:28:49;;;;;;;;;;;13.60;66.20;;;;;;4996764;28;82234;-38
2023/04/24 03:31:15;;;;;;;;;;;13.60;66.20;;;;;;4996152;28;82969;-38
2023/04/24 03:33:40;;;;;;;;;;;13.60;66.20;;;;;;4993648;28;82172;-39
2023/04/24 03:36:06;;;;;;;;;;;13.60;66.20;;;;;;4994060;28;83737;-39
2023/04/24 03:38:31;;;;;;;;;;;13.60;66.20;;;;;;4994658;28;82830;-39
2023/04/24 03:40:57;;;;;;;;;;;13.60;66.20;;;;;;4993767;28;81994;-39
2023/04/24 03:43:22;;;;;;;;;;;13.50;66.20;;;;;;4996403;28;82509;-38
2023/04/24 03:45:48;;;;;;;;;;;13.60;66.10;;;;;;4991871;28;84875;-38
2023/04/24 03:48:13;;;;;;;;;;;13.60;66.10;;;;;;4995542;28;82104;-38
2023/04/24 03:50:39;;;;;;;;;;;13.60;66.10;;;;;;4996428;28;82642;-39
2023/04/24 03:53:05;;;;;;;;;;;13.60;66.20;;;;;;4994129;28;81350;-39
2023/04/24 03:55:30;;;;;;;;;;;13.50;66.20;;;;;;4995225;28;82472;-39
2023/04/24 03:57:55;;;;;;;;;;;13.50;66.20;;;;;;4993020;28;83163;-38
2023/04/24 04:00:21;;;;;;;;;;;13.50;66.10;;;;;;4993857;28;83402;-38
2023/04/24 04:02:46;;;;;;;;;;;13.50;66.20;;;;;;4992787;28;85111;-38
2023/04/24 04:05:12;;;;;;;;;;;13.50;66.20;;;;;;4994623;28;83422;-38
2023/04/24 04:07:37;;;;;;;;;;;13.50;66.20;;;;;;4994074;28;82115;-39
2023/04/24 04:10:03;;;;;;;;;;;13.50;66.20;;;;;;4993830;28;82352;-38
2023/04/24 04:12:29;;;;;;;;;;;13.50;66.20;;;;;;4997126;28;83414;-38
2023/04/24 04:14:55;;;;;;;;;;;13.40;66.10;;;;;;4992932;28;84013;-38
2023/04/24 04:17:20;;;;;;;;;;;13.50;66.30;;;;;;4996227;28;83784;-38
2023/04/24 04:19:46;;;;;;;;;;;13.50;66.30;;;;;;4998724;28;82428;-38
2023/04/24 04:22:11;;;;;;;;;;;13.50;66.30;;;;;;4996903;28;83994;-38
2023/04/24 04:24:37;;;;;;;;;;;13.40;66.20;;;;;;4996525;28;85414;-38
2023/04/24 04:27:04;;;;;;;;;;;13.40;66.30;;;;;;4998158;28;82483;-38
2023/04/24 04:29:31;;;;;;;;;;;13.40;66.30;;;;;;4995639;28;83954;-38
2023/04/24 04:31:56;;;;;;;;;;;13.40;66.20;;;;;;4995447;28;84398;-39
2023/04/24 04:34:23;;;;;;;;;;;13.40;66.20;;;;;;5001087;28;82048;-38
2023/04/24 04:36:48;;;;;;;;;;;13.40;66.20;;;;;;4997073;28;84511;-38
2023/04/24 04:39:14;;;;;;;;;;;13.40;66.30;;;;;;4996825;28;82152;-38
2023/04/24 04:41:40;;;;;;;;;;;13.40;66.20;;;;;;4998425;28;83821;-38
2023/04/24 04:44:08;;;;;;;;;;;13.40;66.20;;;;;;4995146;28;82775;-38
2023/04/24 04:46:34;;;;;;;;;;;13.40;66.30;;;;;;4995219;28;82078;-38
2023/04/24 04:49:01;;;;;;;;;;;13.40;66.30;;;;;;4997527;28;83140;-38
2023/04/24 04:51:26;;;;;;;;;;;13.40;66.30;;;;;;4996719;28;84437;-38
2023/04/24 04:53:52;;;;;;;;;;;13.40;66.30;;;;;;4998807;28;82035;-38
2023/04/24 04:56:18;;;;;;;;;;;13.40;66.30;;;;;;4998466;28;82005;-38
2023/04/24 04:58:43;;;;;;;;;;;13.30;66.30;;;;;;4995161;28;82107;-38
2023/04/24 05:01:09;;;;;;;;;;;13.30;66.30;;;;;;4998536;28;82126;-38
2023/04/24 05:03:35;;;;;;;;;;;13.40;66.30;;;;;;4995874;28;84556;-38
2023/04/24 05:06:01;;;;;;;;;;;13.30;66.30;;;;;;4997072;28;81373;-38
2023/04/24 05:08:27;;;;;;;;;;;13.30;66.30;;;;;;4997153;28;83144;-39
2023/04/24 05:10:53;;;;;;;;;;;13.40;66.40;;;;;;4995026;28;84778;-39
2023/04/24 05:13:18;;;;;;;;;;;13.30;66.30;;;;;;4997404;28;83059;-39
2023/04/24 05:15:44;;;;;;;;;;;13.40;66.40;;;;;;4996934;28;85331;-39
2023/04/24 05:18:10;;;;;;;;;;;13.40;66.40;;;;;;4997229;28;81996;-38
2023/04/24 05:20:35;;;;;;;;;;;13.40;66.30;;;;;;4996392;28;83779;-39
2023/04/24 05:23:01;;;;;;;;;;;13.30;66.40;;;;;;4995953;28;84479;-38
2023/04/24 05:25:26;;;;;;;;;;;13.30;66.40;;;;;;4997195;28;82620;-39
2023/04/24 05:27:53;;;;;;;;;;;13.40;66.40;;;;;;4995224;28;82427;-39
2023/04/24 05:30:19;;;;;;;;;;;13.30;66.20;;;;;;4995166;28;83940;-38
2023/04/24 05:32:45;;;;;;;;;;;13.30;66.40;;;;;;4994754;28;82059;-38
2023/04/24 05:35:10;;;;;;;;;;;13.30;66.40;;;;;;4996703;28;83720;-38
2023/04/24 05:37:36;;;;;;;;;;;13.40;66.40;;;;;;4998794;28;83279;-38
2023/04/24 05:40:01;;;;;;;;;;;13.40;66.40;;;;;;4995158;28;85306;-39
2023/04/24 05:42:27;;;;;;;;;;;13.30;66.20;;;;;;4997026;28;84321;-38
2023/04/24 05:44:54;;;;;;;;;;;13.40;66.30;;;;;;4994345;28;82071;-38
2023/04/24 05:47:21;;;;;;;;;;;13.30;66.20;;;;;;4996783;28;82643;-38
2023/04/24 05:49:47;;;;;;;;;;;13.40;66.30;;;;;;4995705;28;84647;-39
2023/04/24 05:52:12;;;;;;;;;;;13.40;66.20;;;;;;4995765;28;82310;-38
2023/04/24 05:54:38;;;;;;;;;;;13.40;66.40;;;;;;4997793;28;82740;-38
2023/04/24 05:57:07;;;;;;;;;;;13.40;66.30;;;;;;4994401;28;83628;-38
2023/04/24 05:59:38;;;;;;;;;;;13.40;66.20;;;;;;4997357;28;82066;-38
2023/04/24 06:02:04;;;;;;;;;;;13.40;66.30;;;;;;4994919;28;85322;-38
2023/04/24 06:04:29;;;;;;;;;;;13.40;66.30;;;;;;4997006;28;82121;-38
2023/04/24 06:06:55;;;;;;;;;;;13.40;66.30;;;;;;4993121;28;86111;-39
2023/04/24 06:09:23;;;;;;;;;;;13.40;66.30;;;;;;4993704;28;84377;-39
2023/04/24 06:11:49;;;;;;;;;;;13.40;66.30;;;;;;4996358;28;82061;-38
2023/04/24 06:14:15;;;;;;;;;;;13.40;66.30;;;;;;4994948;28;83768;-39
2023/04/24 06:16:41;;;;;;;;;;;13.40;66.30;;;;;;4995206;28;84450;-38
2023/04/24 06:19:07;;;;;;;;;;;13.50;66.40;;;;;;4997184;28;81850;-38
2023/04/24 06:21:32;;;;;;;;;;;13.50;66.30;;;;;;4996296;28;83107;-39
2023/04/24 06:23:58;;;;;;;;;;;13.50;66.40;;;;;;4993850;28;82050;-38
2023/04/24 06:26:24;;;;;;;;;;;13.40;66.40;;;;;;4996293;28;82907;-39
2023/04/24 06:28:51;;;;;;;;;;;13.40;66.40;;;;;;4994884;28;84449;-39
2023/04/24 06:31:16;;;;;;;;;;;13.40;66.50;;;;;;4994659;28;82050;-39
2023/04/24 06:33:42;;;;;;;;;;;13.40;66.50;;;;;;4996501;28;82581;-38
2023/04/24 06:36:08;;;;;;;;;;;13.40;66.50;;;;;;4993265;28;84720;-39
2023/04/24 06:38:34;;;;;;;;;;;13.40;66.50;;;;;;4992480;28;82128;-38
2023/04/24 06:40:59;;;;;;;;;;;13.50;66.50;;;;;;4996123;28;83955;-39
2023/04/24 06:43:25;;;;;;;;;;;13.50;66.50;;;;;;4998245;28;82398;-39
2023/04/24 06:45:51;;;;;;;;;;;13.50;66.50;;;;;;4994935;28;82210;-39
2023/04/24 06:48:16;;;;;;;;;;;13.50;66.60;;;;;;4995823;28;83502;-39
2023/04/24 06:50:42;;;;;;;;;;;13.50;66.60;;;;;;4992969;28;83069;-39
2023/04/24 06:53:08;;;;;;;;;;;13.50;66.50;;;;;;4996548;28;84737;-39
2023/04/24 06:55:33;;;;;;;;;;;13.50;66.60;;;;;;4993697;28;84144;-39
2023/04/24 06:57:59;;;;;;;;;;;13.40;66.60;;;;;;4995751;28;82027;-39
2023/04/24 07:00:24;;;;;;;;;;;13.50;66.60;;;;;;4994912;28;84173;-38
2023/04/24 07:02:50;;;;;;;;;;;13.50;66.60;;;;;;4997173;28;82953;-38
2023/04/24 07:05:15;;;;;;;;;;;13.50;66.50;;;;;;4995840;28;84054;-38
2023/04/24 07:07:42;;;;;;;;;;;13.50;66.50;;;;;;4993250;28;82212;-38
2023/04/24 07:10:08;;;;;;;;;;;13.50;66.60;;;;;;4996164;28;83058;-39
2023/04/24 07:12:33;;;;;;;;;;;13.50;66.60;;;;;;4994203;28;83809;-39
2023/04/24 07:15:00;;;;;;;;;;;13.50;66.50;;;;;;4993710;28;84014;-38
2023/04/24 07:17:25;;;;;;;;;;;13.50;66.60;;;;;;4995160;28;82592;-39
2023/04/24 07:19:51;;;;;;;;;;;13.50;66.60;;;;;;4993423;28;83875;-38
2023/04/24 07:22:17;;;;;;;;;;;13.50;66.60;;;;;;4995886;28;84367;-39
2023/04/24 07:24:43;;;;;;;;;;;13.50;66.60;;;;;;4998941;28;82168;-39
2023/04/24 07:27:09;;;;;;;;;;;13.50;66.60;;;;;;4993525;28;84413;-39
2023/04/24 07:29:35;;;;;;;;;;;13.50;66.50;;;;;;4994518;28;81985;-38
2023/04/24 07:32:01;;;;;;;;;;;13.50;66.60;;;;;;4995521;28;83838;-39
2023/04/24 07:34:26;;;;;;;;;;;13.50;66.60;;;;;;4992967;28;84296;-39
2023/04/24 07:36:52;;;;;;;;;;;13.50;66.60;;;;;;4995523;28;82180;-39
2023/04/24 07:39:18;;;;;;;;;;;13.50;66.50;;;;;;4992528;28;83026;-39
2023/04/24 07:41:43;;;;;;;;;;;13.50;66.50;;;;;;4995496;28;84674;-38
2023/04/24 07:44:09;;;;;;;;;;;13.50;66.60;;;;;;4994090;28;82041;-38
2023/04/24 07:46:34;;;;;;;;;;;13.50;66.50;;;;;;4995922;28;83744;-39
2023/04/24 07:49:01;;;;;;;;;;;13.60;66.60;;;;;;4996494;28;82060;-39
2023/04/24 07:51:30;;;;;;;;;;;13.60;66.50;;;;;;4996042;28;84057;-39
2023/04/24 07:53:55;;;;;;;;;;;13.50;66.60;;;;;;4992980;28;89214;-38
2023/04/24 07:56:21;;;;;;;;;;;13.60;66.50;;;;;;4995533;28;86310;-38
2023/04/24 07:58:46;;;;;;;;;;;13.60;66.60;;;;;;4994493;28;88384;-39
2023/04/24 08:01:12;;;;;;;;;;;13.50;66.50;;;;;;4993462;28;89472;-38
2023/04/24 08:03:37;;;;;;;;;;;13.60;66.60;;;;;;4994512;28;88065;-38
2023/04/24 08:06:03;;;;;;;;;;;13.60;66.60;;;;;;4992113;28;88173;-39
2023/04/24 08:08:29;;;;;;;;;;;13.60;66.60;;;;;;4997848;28;89201;-39
2023/04/24 08:10:54;;;;;;;;;;;13.60;66.60;;;;;;4995742;28;88973;-38
2023/04/24 08:13:20;;;;;;;;;;;13.60;66.60;;;;;;4993326;28;89213;-39
2023/04/24 08:15:46;;;;;;;;;;;13.60;66.60;;;;;;4993491;28;87042;-39
2023/04/24 08:18:13;;;;;;;;;;;13.60;66.60;;;;;;4994778;28;89103;-38
2023/04/24 08:20:39;;;;;;;;;;;13.60;66.60;;;;;;4992505;28;88667;-39
2023/04/24 08:23:04;;;;;;;;;;;13.70;66.70;;;;;;4995530;28;87083;-39
2023/04/24 08:25:30;;;;;;;;;;;13.70;66.70;;;;;;4993080;28;88920;-39
2023/04/24 08:27:55;;;;;;;;;;;13.70;66.70;;;;;;4993638;28;88793;-39
2023/04/24 08:30:21;;;;;;;;;;;13.70;66.80;;;;;;4997503;28;87083;-39
2023/04/24 08:32:47;;;;;;;;;;;13.70;66.70;;;;;;4992534;28;89434;-39
2023/04/24 08:35:13;;;;;;;;;;;13.70;66.70;;;;;;4995192;28;87078;-39
2023/04/24 08:37:38;;;;;;;;;;;13.70;66.80;;;;;;4991687;27;88937;-39
2023/04/24 08:40:06;;;;;;;;;;;13.70;66.70;;;;;;4994439;28;89329;-39
2023/04/24 08:42:34;;;;;;;;;;;13.70;66.70;;;;;;4993423;28;87120;-39
2023/04/24 08:44:59;;;;;;;;;;;13.80;66.70;;;;;;4993606;28;87352;-39
2023/04/24 08:47:26;;;;;;;;;;;13.70;66.70;;;;;;4994298;28;89554;-39
2023/04/24 08:49:52;;;;;;;;;;;13.70;66.70;;;;;;4991347;28;87282;-39
2023/04/24 08:52:18;;;;;;;;;;;13.70;66.80;;;;;;4996466;28;88892;-39
2023/04/24 08:54:46;;;;;;;;;;;13.70;66.70;;;;;;4992621;28;87140;-39
2023/04/24 08:57:14;;;;;;;;;;;13.80;66.80;;;;;;4993185;28;88866;-39
2023/04/24 08:59:39;;;;;;;;;;;13.70;66.70;;;;;;4994130;28;88369;-39
2023/04/24 09:02:06;;;;;;;;;;;13.80;66.80;;;;;;4991282;28;87169;-39
2023/04/24 09:04:33;;;;;;;;;;;13.80;66.80;;;;;;4994550;28;88751;-39
2023/04/24 09:06:59;;;;;;;;;;;13.80;66.80;;;;;;4992549;28;88050;-39
2023/04/24 09:09:25;;;;;;;;;;;13.80;66.80;;;;;;4993638;28;86231;-39
2023/04/24 09:11:53;;;;;;;;;;;13.80;66.70;;;;;;4997179;28;87884;-39
2023/04/24 09:17:03;;;;;;;;;;;13.80;66.70;;;;;;4988592;28;88099;-39
2023/04/24 09:19:28;;;;;;;;;;;13.90;66.70;;;;;;4994104;28;89148;-39
2023/04/24 09:21:54;;;;;;;;;;;13.90;66.80;;;;;;4991103;28;87260;-38
2023/04/24 09:24:22;;;;;;;;;;;13.90;66.70;;;;;;4994147;28;87511;-38
2023/04/24 09:26:48;;;;;;;;;;;13.90;66.80;;;;;;4992503;28;89224;-41
2023/04/24 09:29:16;;;;;;;;;;;13.90;66.80;;;;;;4992200;28;87039;-38
2023/04/24 09:31:43;;;;;;;;;;;13.90;66.80;;;;;;4993941;28;88583;-38
2023/04/24 09:34:08;;;;;;;;;;;14.00;66.80;;;;;;4994605;28;87261;-38
2023/04/24 09:36:38;;;;;;;;;;;14.00;66.70;;;;;;4993855;28;87514;-39
2023/04/24 09:39:05;;;;;;;;;;;14.00;66.80;;;;;;4992270;28;89386;-38
2023/04/24 09:41:31;;;;;;;;;;;14.00;66.70;;;;;;4991384;28;88499;-38
2023/04/24 09:44:01;;;;;;;;;;;14.10;66.80;;;;;;4994392;28;89839;-38
2023/04/24 09:46:31;;;;;;;;;;;14.10;66.70;;;;;;4990637;28;89958;-38
2023/04/24 09:48:57;;;;;;;;;;;14.10;66.70;;;;;;4992472;28;87128;-38
2023/04/24 09:51:38;;;;;;;;;;;14.10;66.80;;;;;;4992970;28;88650;-38
2023/04/24 09:54:04;;;;;;;;;;;14.10;66.80;;;;;;4991624;28;89471;-38
2023/04/24 09:56:33;;;;;;;;;;;14.10;66.80;;;;;;4994693;28;87138;-39
2023/04/24 09:59:04;;;;;;;;;;;14.20;66.80;;;;;;4994083;28;87571;-38
2023/04/24 10:01:30;;;;;;;;;;;14.20;66.70;;;;;;4991346;28;87012;-38
2023/04/24 10:03:55;;;;;;;;;;;14.20;66.70;;;;;;4992830;28;88865;-38
2023/04/24 10:06:21;;;;;;;;;;;14.20;66.70;;;;;;4989888;28;90822;-38
2023/04/24 10:08:47;;;;;;;;;;;14.30;66.80;;;;;;4991414;28;87102;-39
2023/04/24 10:11:13;;;;;;;;;;;14.30;66.80;;;;;;4992449;28;90784;-38
2023/04/24 10:13:40;;;;;;;;;;;14.30;66.80;;;;;;4989793;28;89587;-38
2023/04/24 10:16:06;;;;;;;;;;;14.30;66.80;;;;;;4993047;28;87065;-38
2023/04/24 10:18:32;;;;;;;;;;;14.30;66.90;;;;;;4993900;28;87620;-41
2023/04/24 10:20:59;;;;;;;;;;;14.30;67.00;;;;;;4991847;28;87162;-40
2023/04/24 10:23:25;;;;;;;;;;;14.30;67.00;;;;;;4993425;28;88780;-41
2023/04/24 10:25:52;;;;;;;;;;;14.30;67.00;;;;;;4989690;28;89317;-40
2023/04/24 10:28:18;;;;;;;;;;;14.40;67.10;;;;;;4993202;28;87392;-40
2023/04/24 10:30:45;;;;;;;;;;;14.40;67.00;;;;;;4990812;28;88355;-40
2023/04/24 10:33:12;;;;;;;;;;;14.40;67.10;;;;;;4991686;28;87856;-40
2023/04/24 10:35:40;;;;;;;;;;;14.40;67.00;;;;;;4992651;28;87120;-40
2023/04/24 10:38:13;;;;;;;;;;;14.50;67.00;;;;;;4990094;28;87961;-40
2023/04/24 10:40:38;;;;;;;;;;;14.50;67.00;;;;;;4994717;28;89172;-40
2023/04/24 10:43:09;;;;;;;;;;;14.50;67.00;;;;;;4991530;28;87443;-40
2023/04/24 10:45:35;;;;;;;;;;;14.50;67.10;;;;;;4989697;28;89248;-40
2023/04/24 10:48:10;;;;;;;;;;;14.50;67.10;;;;;;4993833;28;86229;-40
2023/04/24 10:50:45;;;;;;;;;;;14.50;67.20;;;;;;4991961;28;88238;-40
2023/04/24 10:53:18;;;;;;;;;;;14.50;67.20;;;;;;4989769;28;88050;-40
2023/04/24 10:55:43;;;;;;;;;;;14.50;67.20;;;;;;4991108;28;88056;-40
2023/04/24 10:58:09;;;;;;;;;;;14.50;67.20;;;;;;4991652;27;87885;-40
2023/04/24 11:00:39;;;;;;;;;;;14.50;67.10;;;;;;4990433;28;89353;-41
2023/04/24 11:03:05;;;;;;;;;;;14.50;67.10;;;;;;4995784;28;87467;-40
2023/04/24 11:05:50;;;;;;;;;;;14.50;67.10;;;;;;4989937;28;89314;-40
2023/04/24 11:08:21;;;;;;;;;;;14.50;67.20;;;;;;4989630;28;87209;-40
2023/04/24 11:10:47;;;;;;;;;;;14.50;67.30;;;;;;4991938;28;87481;-40
2023/04/24 11:13:16;;;;;;;;;;;14.50;67.20;;;;;;4991808;28;87631;-40
2023/04/24 11:15:42;;;;;;;;;;;14.50;67.30;;;;;;4989642;28;87239;-40
2023/04/24 11:18:12;;;;;;;;;;;14.50;67.20;;;;;;4992907;28;88699;-39
2023/04/24 11:20:41;;;;;;;;;;;14.50;67.80;;;;;;4989472;28;91776;-40
2023/04/24 11:23:08;;;;;;;;;;;14.60;67.20;;;;;;4993490;28;86999;-40
2023/04/24 11:25:35;;;;;;;;;;;14.60;67.20;;;;;;4992214;28;89282;-40
2023/04/24 11:28:04;;;;;;;;;;;14.60;67.30;;;;;;4989449;28;87130;-40
2023/04/24 11:30:30;;;;;;;;;;;14.60;67.30;;;;;;4991836;28;88787;-40
2023/04/24 11:33:01;;;;;;;;;;;14.60;67.20;;;;;;4990167;28;89243;-41
2023/04/24 11:35:29;;;;;;;;;;;14.60;67.20;;;;;;4989875;28;87450;-41
2023/04/24 11:37:55;;;;;;;;;;;14.70;67.20;;;;;;4993190;28;87904;-41
2023/04/24 11:40:22;;;;;;;;;;;14.70;67.20;;;;;;4989319;28;89502;-41
2023/04/24 11:42:49;;;;;;;;;;;14.70;67.30;;;;;;4993017;28;87049;-40
2023/04/24 11:45:16;;;;;;;;;;;14.70;67.30;;;;;;4992349;28;88938;-40
2023/04/24 11:47:42;;;;;;;;;;;14.70;67.30;;;;;;4992004;28;86987;-38
2023/04/24 11:50:09;;;;;;;;;;;14.70;67.40;;;;;;4989605;28;88939;-40
2023/04/24 11:52:38;;;;;;;;;;;14.80;67.30;;;;;;4992366;28;88045;-40
2023/04/24 11:55:06;;;;;;;;;;;14.80;67.30;;;;;;4991031;28;87102;-41
2023/04/24 11:57:36;;;;;;;;;;;14.80;67.30;;;;;;4990261;28;88658;-41
2023/04/24 12:00:02;;;;;;;;;;;14.80;67.30;;;;;;4992231;28;88075;-41
2023/04/24 12:02:28;;;;;;;;;;;14.80;67.40;;;;;;4989701;28;86383;-41
2023/04/24 12:04:54;;;;;;;;;;;14.90;67.50;;;;;;4991032;28;88114;-41
2023/04/24 12:07:20;;;;;;;;;;;14.90;67.40;;;;;;4993284;28;88453;-41
2023/04/24 12:09:59;;;;;;;;;;;14.90;67.30;;;;;;4993431;28;88645;-38
2023/04/24 12:12:28;;;;;;;;;;;14.90;67.30;;;;;;4989582;28;89806;-41
2023/04/24 12:14:57;;;;;;;;;;;15.00;67.30;;;;;;4989454;28;87138;-41
2023/04/24 12:17:25;;;;;;;;;;;15.00;67.40;;;;;;4991969;28;88025;-41
2023/04/24 12:19:51;;;;;;;;;;;15.00;67.30;;;;;;4988913;28;88918;-39
2023/04/24 12:22:16;;;;;;;;;;;15.00;67.30;;;;;;4991298;28;87102;-40
2023/04/24 12:24:58;;;;;;;;;;;15.00;67.30;;;;;;4990116;28;88952;-41
2023/04/24 12:27:23;;;;;;;;;;;15.00;67.30;;;;;;4989354;28;87052;-39
2023/04/24 12:29:53;;;;;;;;;;;15.00;67.30;;;;;;4994151;28;87281;-40
2023/04/24 12:32:19;;;;;;;;;;;15.00;67.30;;;;;;4990189;28;89355;-41
2023/04/24 12:34:44;;;;;;;;;;;15.00;67.30;;;;;;4988775;28;88559;-41
2023/04/24 12:37:11;;;;;;;;;;;15.00;67.40;;;;;;4994956;28;89670;-41
2023/04/24 12:39:36;;;;;;;;;;;15.00;67.40;;;;;;4991741;28;89562;-41
2023/04/24 12:42:02;;;;;;;;;;;15.10;67.50;;;;;;4994715;28;87109;-41
2023/04/24 12:44:32;;;;;;;;;;;15.10;67.50;;;;;;4993130;28;88729;-41
2023/04/24 12:46:57;;;;;;;;;;;15.10;68.10;;;;;;4992227;28;89570;-41
2023/04/24 12:49:23;;;;;;;;;;;15.10;67.50;;;;;;4995056;28;87063;-41
2023/04/24 12:51:48;;;;;;;;;;;15.20;67.50;;;;;;4994923;28;88835;-41
2023/04/24 12:54:14;;;;;;;;;;;15.20;67.50;;;;;;4994655;28;87471;-40
2023/04/24 12:56:40;;;;;;;;;;;15.20;67.40;;;;;;4992612;28;88804;-41
2023/04/24 12:59:05;;;;;;;;;;;15.20;67.40;;;;;;4992576;28;90199;-40
2023/04/24 13:01:31;;;;;;;;;;;15.20;67.40;;;;;;4993990;28;87693;-41
2023/04/24 13:03:56;;;;;;;;;;;15.30;67.40;;;;;;4992096;28;88935;-38
2023/04/24 13:06:22;;;;;;;;;;;15.30;67.40;;;;;;4994783;28;88140;-41
2023/04/24 13:08:48;;;;;;;;;;;15.30;67.50;;;;;;4991312;28;87094;-38
2023/04/24 13:11:14;;;;;;;;;;;15.30;67.40;;;;;;4996252;28;89162;-40
2023/04/24 13:13:39;;;;;;;;;;;15.30;67.40;;;;;;4993086;28;87104;-40
2023/04/24 13:16:05;;;;;;;;;;;15.40;67.40;;;;;;4992484;28;88830;-40
2023/04/24 13:18:30;;;;;;;;;;;15.40;67.40;;;;;;4993932;28;88206;-40
2023/04/24 13:20:56;;;;;;;;;;;15.40;67.40;;;;;;4991626;28;87161;-40
2023/04/24 13:23:22;;;;;;;;;;;15.40;67.40;;;;;;4994195;28;88937;-40
2023/04/24 13:25:48;;;;;;;;;;;15.50;67.30;;;;;;4992027;28;88081;-40
2023/04/24 13:28:13;;;;;;;;;;;15.50;67.30;;;;;;4993447;28;87186;-40
2023/04/24 13:30:39;;;;;;;;;;;15.60;67.30;;;;;;4993276;28;88682;-40
2023/04/24 13:33:05;;;;;;;;;;;15.60;67.10;;;;;;4994547;28;89131;-40
2023/04/24 13:35:30;;;;;;;;;;;15.60;67.10;;;;;;4994220;28;88526;-40
2023/04/24 13:37:57;;;;;;;;;;;15.70;67.00;;;;;;4990632;28;89556;-40
2023/04/24 13:40:22;;;;;;;;;;;15.70;67.00;;;;;;4994819;28;86240;-40
2023/04/24 13:42:48;;;;;;;;;;;15.80;67.00;;;;;;4991959;28;88162;-40
2023/04/24 13:45:14;;;;;;;;;;;15.80;67.00;;;;;;4992329;28;89323;-40
2023/04/24 13:47:40;;;;;;;;;;;15.80;67.10;;;;;;4991841;28;88010;-40
2023/04/24 13:50:08;;;;;;;;;;;15.80;67.10;;;;;;4990955;28;89667;-40
2023/04/24 13:52:33;;;;;;;;;;;15.80;67.10;;;;;;4990457;28;88542;-40
2023/04/24 13:54:59;;;;;;;;;;;15.90;67.00;;;;;;4996403;28;87107;-41
2023/04/24 13:57:24;;;;;;;;;;;15.90;67.00;;;;;;4991771;28;87343;-40
2023/04/24 13:59:50;;;;;;;;;;;15.90;66.90;;;;;;4992622;28;87199;-40
2023/04/24 14:02:15;;;;;;;;;;;15.90;67.00;;;;;;4993653;28;88151;-40
2023/04/24 14:04:41;;;;;;;;;;;16.00;67.60;;;;;;4991104;28;88767;-40
2023/04/24 14:07:07;;;;;;;;;;;16.00;67.00;;;;;;4994141;28;87540;-40
2023/04/24 14:09:33;;;;;;;;;;;16.00;67.00;;;;;;4990956;28;87689;-40
2023/04/24 14:11:58;;;;;;;;;;;16.00;67.00;;;;;;4991791;28;88934;-40
2023/04/24 14:14:24;;;;;;;;;;;16.00;67.00;;;;;;4991477;28;87127;-39